Time;durP1;ratioP1;P1;durP2;ratioP2;P2;SDS_P1;SDS_P2;PMS_P1;PMS_P2;Temp;Humidity;BMP_temperature;BMP_pressure;BME280_temperature;BME280_humidity;BME280_pressure;Samples;Min_cycle;Max_cycle;Signal;HPM_P1;HPM_P2
2022/04/16 00:01:42;;;;;;;2.28;1.50;;;;;;;;;;5021493;28;20340;-64
2022/04/16 00:04:09;;;;;;;2.10;1.67;;;;;;;;;;5020415;28;20061;-65
2022/04/16 00:06:36;;;;;;;2.50;1.40;;;;;;;;;;5020151;28;20505;-66
2022/04/16 00:09:03;;;;;;;1.88;1.48;;;;;;;;;;5021273;28;20133;-64
2022/04/16 00:11:30;;;;;;;2.05;1.60;;;;;;;;;;5020167;28;20548;-64
2022/04/16 00:13:56;;;;;;;4.13;2.22;;;;;;;;;;5021991;28;20505;-65
2022/04/16 00:16:25;;;;;;;2.95;1.80;;;;;;;;;;5019763;28;20161;-64
2022/04/16 00:18:51;;;;;;;1.55;1.38;;;;;;;;;;5018371;28;20057;-65
2022/04/16 00:21:18;;;;;;;3.33;1.52;;;;;;;;;;5020922;28;20209;-64
2022/04/16 00:23:48;;;;;;;2.33;1.77;;;;;;;;;;5023039;28;20457;-66
2022/04/16 00:26:15;;;;;;;2.55;1.77;;;;;;;;;;5024094;28;20145;-65
2022/04/16 00:28:41;;;;;;;4.20;1.30;;;;;;;;;;5022994;28;20326;-64
2022/04/16 00:31:14;;;;;;;3.30;1.50;;;;;;;;;;5019418;28;20132;-64
2022/04/16 00:33:41;;;;;;;3.67;1.80;;;;;;;;;;5017572;28;20136;-64
2022/04/16 00:36:07;;;;;;;2.13;1.70;;;;;;;;;;5016747;28;20568;-64
2022/04/16 00:38:36;;;;;;;3.45;1.65;;;;;;;;;;5016851;28;20084;-64
2022/04/16 00:41:04;;;;;;;2.90;2.03;;;;;;;;;;5002256;28;20136;-64
2022/04/16 00:43:30;;;;;;;3.03;1.90;;;;;;;;;;5017990;28;20092;-64
2022/04/16 00:46:03;;;;;;;2.72;1.77;;;;;;;;;;5018995;28;20045;-64
2022/04/16 00:48:37;;;;;;;1.90;1.60;;;;;;;;;;5018465;28;20100;-64
2022/04/16 00:51:08;;;;;;;3.03;1.88;;;;;;;;;;5033519;28;20657;-64
2022/04/16 00:53:35;;;;;;;1.70;1.60;;;;;;;;;;5038795;28;20049;-64
2022/04/16 00:56:03;;;;;;;1.92;1.73;;;;;;;;;;5036031;28;20165;-64
2022/04/16 00:58:29;;;;;;;3.03;2.20;;;;;;;;;;5030214;28;20081;-64
2022/04/16 01:00:56;;;;;;;2.40;1.60;;;;;;;;;;5039447;28;20132;-64
2022/04/16 01:03:22;;;;;;;3.33;1.77;;;;;;;;;;5039132;28;20136;-64
2022/04/16 01:05:49;;;;;;;2.45;1.70;;;;;;;;;;5038769;28;20084;-65
2022/04/16 01:08:18;;;;;;;3.45;1.88;;;;;;;;;;5039242;28;20046;-64
2022/04/16 01:10:44;;;;;;;1.92;1.70;;;;;;;;;;5036383;28;20581;-64
2022/04/16 01:13:11;;;;;;;3.15;1.60;;;;;;;;;;5039616;28;20148;-64
2022/04/16 01:15:39;;;;;;;2.95;1.75;;;;;;;;;;5037333;28;20453;-64
2022/04/16 01:18:07;;;;;;;4.47;2.03;;;;;;;;;;5024833;28;20103;-64
2022/04/16 01:20:35;;;;;;;12.18;2.13;;;;;;;;;;5039160;28;20084;-64
2022/04/16 01:23:04;;;;;;;2.63;2.00;;;;;;;;;;5039446;28;20080;-64
2022/04/16 01:25:32;;;;;;;3.00;2.00;;;;;;;;;;5038307;28;20085;-64
2022/04/16 01:28:00;;;;;;;4.53;1.80;;;;;;;;;;5041189;28;20055;-64
2022/04/16 01:30:28;;;;;;;3.97;1.90;;;;;;;;;;5036516;28;20080;-64
2022/04/16 01:32:54;;;;;;;2.03;1.20;;;;;;;;;;5038768;28;20160;-64
2022/04/16 01:35:21;;;;;;;8.27;2.10;;;;;;;;;;5035601;28;20218;-64
2022/04/16 01:37:54;;;;;;;3.00;2.10;;;;;;;;;;5038922;28;20136;-64
2022/04/16 01:40:25;;;;;;;4.22;2.10;;;;;;;;;;5040965;28;20080;-64
2022/04/16 01:42:56;;;;;;;2.88;1.90;;;;;;;;;;5047678;28;20095;-64
2022/04/16 01:45:24;;;;;;;2.70;2.10;;;;;;;;;;5042809;28;20404;-64
2022/04/16 01:47:50;;;;;;;3.58;2.28;;;;;;;;;;5029304;28;20050;-64
2022/04/16 01:50:24;;;;;;;2.30;1.77;;;;;;;;;;5043054;28;20516;-64
2022/04/16 01:52:57;;;;;;;1.88;1.63;;;;;;;;;;5036726;28;20200;-64
2022/04/16 01:55:24;;;;;;;5.03;1.98;;;;;;;;;;5046458;28;20061;-64
2022/04/16 01:57:51;;;;;;;3.65;1.90;;;;;;;;;;5045482;28;20556;-64
2022/04/16 02:00:19;;;;;;;2.08;1.52;;;;;;;;;;5041552;28;20092;-64
2022/04/16 02:02:46;;;;;;;3.20;1.80;;;;;;;;;;5046351;28;20045;-64
2022/04/16 02:05:12;;;;;;;2.47;1.83;;;;;;;;;;5048180;28;20592;-64
2022/04/16 02:07:45;;;;;;;4.85;1.98;;;;;;;;;;5046903;28;20140;-64
2022/04/16 02:10:16;;;;;;;2.08;1.63;;;;;;;;;;5045002;28;20140;-64
2022/04/16 02:12:43;;;;;;;3.35;2.10;;;;;;;;;;5048180;28;20049;-64
2022/04/16 02:15:16;;;;;;;2.65;2.25;;;;;;;;;;5047227;28;20053;-64
2022/04/16 02:17:43;;;;;;;2.00;1.67;;;;;;;;;;5041442;28;20778;-64
2022/04/16 02:20:10;;;;;;;2.85;2.00;;;;;;;;;;5047594;28;20127;-64
2022/04/16 02:22:38;;;;;;;3.03;2.10;;;;;;;;;;5042568;28;20111;-64
2022/04/16 02:25:05;;;;;;;3.08;2.10;;;;;;;;;;5045666;28;20427;-64
2022/04/16 02:27:34;;;;;;;3.35;2.17;;;;;;;;;;5045772;28;20136;-64
2022/04/16 02:30:08;;;;;;;3.83;2.22;;;;;;;;;;5040800;28;20484;-64
2022/04/16 02:32:35;;;;;;;;;;;;;;;;;;5048564;28;20081;-64
2022/04/16 02:35:01;;;;;;;3.30;2.10;;;;;;;;;;5045237;28;20016;-64
2022/04/16 02:37:29;;;;;;;3.58;2.40;;;;;;;;;;5044449;28;20076;-64
2022/04/16 02:39:56;;;;;;;6.15;2.20;;;;;;;;;;5044412;28;20145;-64
2022/04/16 02:42:22;;;;;;;5.90;2.40;;;;;;;;;;5041104;28;20175;-64
2022/04/16 02:47:34;;;;;;;2.97;1.80;;;;;;;;;;5045436;28;20080;-64
2022/04/16 02:50:07;;;;;;;2.80;2.17;;;;;;;;;;5045616;28;20139;-64
2022/04/16 02:52:36;;;;;;;2.03;1.63;;;;;;;;;;5043109;28;20529;-64
2022/04/16 02:55:03;;;;;;;6.63;2.10;;;;;;;;;;5029574;28;20535;-64
2022/04/16 02:57:31;;;;;;;4.80;1.80;;;;;;;;;;5042426;28;20136;-64
2022/04/16 02:59:58;;;;;;;3.47;1.98;;;;;;;;;;5037628;28;20526;-64
2022/04/16 03:02:30;;;;;;;5.10;2.40;;;;;;;;;;5040462;28;20122;-63
2022/04/16 03:04:56;;;;;;;3.20;2.50;;;;;;;;;;5042251;28;20472;-64
2022/04/16 03:07:24;;;;;;;4.07;2.20;;;;;;;;;;5038447;28;20131;-64
2022/04/16 03:09:51;;;;;;;3.47;2.30;;;;;;;;;;5039712;28;20137;-64
2022/04/16 03:12:17;;;;;;;3.15;1.95;;;;;;;;;;5040141;28;20077;-64
2022/04/16 03:17:33;;;;;;;4.65;2.30;;;;;;;;;;5040221;28;20120;-64
2022/04/16 03:20:04;;;;;;;6.07;2.47;;;;;;;;;;5041182;28;20132;-63
2022/04/16 03:22:32;;;;;;;5.05;2.50;;;;;;;;;;5042583;28;20133;-63
2022/04/16 03:25:02;;;;;;;3.95;2.60;;;;;;;;;;5040357;28;20131;-64
2022/04/16 03:27:37;;;;;;;4.85;2.00;;;;;;;;;;5041636;28;20088;-64
2022/04/16 03:30:04;;;;;;;3.25;2.33;;;;;;;;;;5043588;28;20084;-64
2022/04/16 03:32:30;;;;;;;3.75;2.55;;;;;;;;;;5031589;28;20095;-63
2022/04/16 03:34:58;;;;;;;3.72;2.60;;;;;;;;;;5040277;28;20048;-64
2022/04/16 03:37:25;;;;;;;2.93;2.00;;;;;;;;;;5043890;28;20172;-63
2022/04/16 03:39:51;;;;;;;4.65;2.30;;;;;;;;;;5037682;28;20324;-64
2022/04/16 03:42:20;;;;;;;5.15;2.72;;;;;;;;;;5042497;28;20080;-63
2022/04/16 03:44:47;;;;;;;4.85;2.63;;;;;;;;;;5041956;28;20568;-64
2022/04/16 03:47:13;;;;;;;3.95;2.60;;;;;;;;;;5038767;28;20091;-64
2022/04/16 03:49:40;;;;;;;3.55;2.50;;;;;;;;;;5038628;28;20706;-64
2022/04/16 03:52:07;;;;;;;4.65;2.70;;;;;;;;;;5040052;28;20445;-64
2022/04/16 04:00:11;;;;;;;5.10;2.40;;;;;;;;;;5040709;28;20139;-64
2022/04/16 04:02:38;;;;;;;5.82;2.70;;;;;;;;;;5044564;28;20471;-64
2022/04/16 04:05:05;;;;;;;;;;;;;;;;;;5029211;28;20477;-63
2022/04/16 04:07:33;;;;;;;5.18;2.65;;;;;;;;;;5038190;28;20468;-64
2022/04/16 04:10:00;;;;;;;6.23;2.70;;;;;;;;;;5041225;28;20124;-63
2022/04/16 04:12:27;;;;;;;6.30;3.13;;;;;;;;;;5040350;28;20374;-64
2022/04/16 04:15:00;;;;;;;4.00;2.63;;;;;;;;;;5030979;28;20136;-64
2022/04/16 04:17:27;;;;;;;3.45;2.50;;;;;;;;;;5032196;28;20535;-64
2022/04/16 04:19:53;;;;;;;6.47;2.55;;;;;;;;;;5038125;28;20053;-64
2022/04/16 04:22:20;;;;;;;4.22;2.53;;;;;;;;;;5040005;28;20072;-63
2022/04/16 04:24:47;;;;;;;6.07;3.00;;;;;;;;;;5039067;28;20088;-63
2022/04/16 04:27:13;;;;;;;6.73;2.50;;;;;;;;;;5038786;28;20081;-64
2022/04/16 04:29:41;;;;;;;4.70;2.15;;;;;;;;;;5035165;28;20374;-64
2022/04/16 04:32:07;;;;;;;5.80;2.80;;;;;;;;;;5035709;28;20085;-64
2022/04/16 04:34:34;;;;;;;4.55;2.75;;;;;;;;;;5037255;28;20050;-64
2022/04/16 04:37:02;;;;;;;4.93;2.58;;;;;;;;;;5036784;28;20088;-64
2022/04/16 04:39:29;;;;;;;7.15;2.65;;;;;;;;;;5037964;28;20134;-63
2022/04/16 04:41:55;;;;;;;6.50;2.75;;;;;;;;;;5036813;28;20132;-64
2022/04/16 04:44:22;;;;;;;4.80;2.75;;;;;;;;;;5038168;28;20491;-62
2022/04/16 04:46:52;;;;;;;7.68;2.83;;;;;;;;;;5037963;28;20110;-64
2022/04/16 04:49:18;;;;;;;8.30;2.63;;;;;;;;;;5036409;28;20056;-64
2022/04/16 04:51:45;;;;;;;9.67;2.83;;;;;;;;;;5036980;28;20132;-64
2022/04/16 04:54:12;;;;;;;3.15;2.00;;;;;;;;;;5042854;28;20459;-64
2022/04/16 04:56:38;;;;;;;4.60;2.57;;;;;;;;;;5040831;28;20100;-64
2022/04/16 04:59:05;;;;;;;7.57;2.70;;;;;;;;;;5039655;28;20395;-64
2022/04/16 05:01:32;;;;;;;4.25;2.03;;;;;;;;;;5041137;28;20323;-64
2022/04/16 05:03:58;;;;;;;6.13;2.17;;;;;;;;;;5039278;28;20052;-64
2022/04/16 05:06:25;;;;;;;4.82;2.50;;;;;;;;;;5036986;28;20375;-64
2022/04/16 05:08:58;;;;;;;5.63;2.35;;;;;;;;;;5039145;28;20078;-64
2022/04/16 05:11:25;;;;;;;4.60;2.47;;;;;;;;;;5025361;28;20088;-65
2022/04/16 05:13:51;;;;;;;5.53;2.42;;;;;;;;;;5036513;28;20472;-64
2022/04/16 05:16:19;;;;;;;4.63;2.40;;;;;;;;;;5038662;28;20084;-65
2022/04/16 05:18:46;;;;;;;11.07;2.77;;;;;;;;;;5037833;28;20048;-65
2022/04/16 05:21:12;;;;;;;3.70;2.25;;;;;;;;;;5037943;28;20125;-65
2022/04/16 05:23:41;;;;;;;4.88;2.33;;;;;;;;;;5042124;28;20082;-65
2022/04/16 05:26:11;;;;;;;5.40;2.90;;;;;;;;;;5032527;28;20037;-65
2022/04/16 05:28:38;;;;;;;3.88;2.67;;;;;;;;;;5040420;28;20148;-65
2022/04/16 05:31:11;;;;;;;3.67;2.40;;;;;;;;;;5038137;28;20124;-64
2022/04/16 05:36:23;;;;;;;3.60;2.00;;;;;;;;;;5041848;28;20592;-64
2022/04/16 05:38:49;;;;;;;4.03;2.45;;;;;;;;;;5042279;28;20124;-65
2022/04/16 05:41:16;;;;;;;4.78;2.25;;;;;;;;;;5040419;28;20038;-65
2022/04/16 05:43:43;;;;;;;;;;;;;;;;;;5035990;28;20100;-65
2022/04/16 05:46:10;;;;;;;4.05;2.35;;;;;;;;;;5039591;28;19951;-65
2022/04/16 05:48:36;;;;;;;4.68;2.58;;;;;;;;;;5036256;28;20528;-65
2022/04/16 05:51:04;;;;;;;5.90;2.47;;;;;;;;;;5038935;28;20508;-65
2022/04/16 05:53:31;;;;;;;3.30;2.50;;;;;;;;;;5035560;28;20056;-65
2022/04/16 05:55:58;;;;;;;4.53;2.58;;;;;;;;;;5038209;28;20048;-65
2022/04/16 05:58:25;;;;;;;3.50;2.40;;;;;;;;;;5038195;28;20087;-65
2022/04/16 06:00:52;;;;;;;3.38;2.13;;;;;;;;;;5039322;28;20136;-65
2022/04/16 06:03:19;;;;;;;2.95;2.13;;;;;;;;;;5038389;28;20045;-65
2022/04/16 06:05:47;;;;;;;4.10;2.33;;;;;;;;;;5036227;28;20496;-66
2022/04/16 06:08:14;;;;;;;4.05;2.47;;;;;;;;;;5037031;28;20061;-66
2022/04/16 06:10:40;;;;;;;4.70;2.58;;;;;;;;;;5038248;28;20080;-66
2022/04/16 06:13:13;;;;;;;3.45;2.33;;;;;;;;;;5040175;28;20132;-66
2022/04/16 06:15:43;;;;;;;5.15;2.30;;;;;;;;;;5041003;28;20060;-66
2022/04/16 06:18:10;;;;;;;5.55;2.35;;;;;;;;;;5030625;28;20530;-66
2022/04/16 06:20:40;;;;;;;4.22;2.17;;;;;;;;;;5038248;28;20140;-66
2022/04/16 06:23:07;;;;;;;3.03;2.15;;;;;;;;;;5035413;28;20461;-66
2022/04/16 06:25:34;;;;;;;3.15;2.15;;;;;;;;;;5039879;28;20111;-66
2022/04/16 06:28:02;;;;;;;5.07;2.30;;;;;;;;;;5038344;28;20560;-67
2022/04/16 06:30:29;;;;;;;7.43;2.28;;;;;;;;;;5043030;28;20135;-67
2022/04/16 06:32:55;;;;;;;6.05;2.17;;;;;;;;;;5043884;28;20160;-67
2022/04/16 06:35:22;;;;;;;5.40;2.20;;;;;;;;;;5040081;28;20063;-67
2022/04/16 06:37:49;;;;;;;2.67;1.97;;;;;;;;;;5042620;28;20456;-67
2022/04/16 06:40:15;;;;;;;2.47;1.75;;;;;;;;;;5044701;28;20390;-67
2022/04/16 06:42:42;;;;;;;5.05;2.00;;;;;;;;;;5041526;28;20136;-66
2022/04/16 06:45:09;;;;;;;2.08;1.88;;;;;;;;;;5036178;28;20079;-66
2022/04/16 06:47:35;;;;;;;2.13;1.48;;;;;;;;;;5037288;28;20555;-66
2022/04/16 06:50:03;;;;;;;2.67;1.90;;;;;;;;;;5015651;28;20185;-66
2022/04/16 06:52:30;;;;;;;;;;;;;;;;;;5035134;28;20056;-66
2022/04/16 06:54:59;;;;;;;2.75;1.60;;;;;;;;;;5038814;28;20020;-67
2022/04/16 06:57:26;;;;;;;5.10;2.15;;;;;;;;;;5040162;28;20049;-66
2022/04/16 06:59:59;;;;;;;3.47;1.80;;;;;;;;;;5043265;28;20508;-67
2022/04/16 07:02:25;;;;;;;4.47;1.90;;;;;;;;;;5037639;28;20148;-67
2022/04/16 07:04:53;;;;;;;3.25;2.13;;;;;;;;;;5039051;28;20050;-67
2022/04/16 07:07:19;;;;;;;2.25;1.70;;;;;;;;;;5037691;28;20136;-67
2022/04/16 07:09:53;;;;;;;3.00;1.88;;;;;;;;;;5043832;28;20135;-67
2022/04/16 07:12:19;;;;;;;4.95;2.22;;;;;;;;;;5041234;28;20071;-67
2022/04/16 07:14:46;;;;;;;2.20;1.60;;;;;;;;;;5039223;28;20088;-68
2022/04/16 07:17:18;;;;;;;4.53;1.55;;;;;;;;;;5040856;28;20063;-68
2022/04/16 07:19:45;;;;;;;2.97;1.30;;;;;;;;;;5042112;28;20576;-68
2022/04/16 07:22:12;;;;;;;5.15;2.05;;;;;;;;;;5035957;28;20056;-68
2022/04/16 07:24:42;;;;;;;2.55;1.80;;;;;;;;;;5036304;28;20081;-68
2022/04/16 07:27:09;;;;;;;4.13;1.98;;;;;;;;;;5039538;28;20057;-69
2022/04/16 07:29:35;;;;;;;3.05;1.65;;;;;;;;;;5041190;28;20136;-69
2022/04/16 07:32:05;;;;;;;2.28;1.60;;;;;;;;;;5041133;28;20553;-70
2022/04/16 07:34:32;;;;;;;2.05;1.38;;;;;;;;;;5042838;28;20057;-69
2022/04/16 07:36:58;;;;;;;2.35;1.30;;;;;;;;;;5044343;28;20045;-69
2022/04/16 07:39:24;;;;;;;1.27;1.10;;;;;;;;;;5038962;28;20604;-70
2022/04/16 07:41:52;;;;;;;3.83;1.70;;;;;;;;;;5039018;28;20140;-69
2022/04/16 07:44:19;;;;;;;4.22;1.58;;;;;;;;;;5042841;28;20133;-70
2022/04/16 07:46:45;;;;;;;2.97;1.70;;;;;;;;;;5037274;28;20045;-70
2022/04/16 07:49:17;;;;;;;3.13;1.52;;;;;;;;;;5041980;28;20084;-71
2022/04/16 07:51:45;;;;;;;3.40;1.30;;;;;;;;;;5038687;28;20049;-70
2022/04/16 07:54:12;;;;;;;1.58;1.10;;;;;;;;;;5040612;28;20458;-70
2022/04/16 07:56:38;;;;;;;3.92;1.63;;;;;;;;;;5037410;28;20135;-70
2022/04/16 07:59:05;;;;;;;2.28;1.20;;;;;;;;;;5038609;28;20178;-70
2022/04/16 08:01:31;;;;;;;3.23;1.20;;;;;;;;;;5040836;28;20508;-71
2022/04/16 08:03:58;;;;;;;2.20;0.90;;;;;;;;;;5035563;28;20144;-71
2022/04/16 08:06:25;;;;;;;1.50;1.08;;;;;;;;;;5031809;28;20144;-71
2022/04/16 08:08:52;;;;;;;2.72;1.23;;;;;;;;;;5032818;28;20139;-71
2022/04/16 08:11:19;;;;;;;4.43;1.40;;;;;;;;;;5031078;28;20053;-72
2022/04/16 08:13:45;;;;;;;1.42;1.10;;;;;;;;;;5030547;28;20063;-71
2022/04/16 08:16:12;;;;;;;1.13;0.90;;;;;;;;;;5032063;28;20516;-71
2022/04/16 08:18:41;;;;;;;3.40;1.10;;;;;;;;;;5036301;28;20304;-71
2022/04/16 08:21:07;;;;;;;2.22;1.10;;;;;;;;;;5032360;28;20049;-72
2022/04/16 08:23:40;;;;;;;1.73;1.10;;;;;;;;;;5030837;28;20049;-71
2022/04/16 08:26:07;;;;;;;2.53;1.17;;;;;;;;;;5033147;28;20044;-71
2022/04/16 08:28:33;;;;;;;1.60;0.98;;;;;;;;;;5031952;28;20144;-71
2022/04/16 08:31:00;;;;;;;1.30;1.00;;;;;;;;;;5031818;28;20166;-72
2022/04/16 08:33:27;;;;;;;3.53;1.23;;;;;;;;;;5030135;28;20053;-72
2022/04/16 08:35:53;;;;;;;3.72;1.55;;;;;;;;;;5014139;28;20132;-72
2022/04/16 08:38:20;;;;;;;1.63;1.20;;;;;;;;;;5027293;28;20049;-72
2022/04/16 08:40:47;;;;;;;2.15;1.08;;;;;;;;;;5030529;28;20655;-71
2022/04/16 08:43:14;;;;;;;2.08;1.10;;;;;;;;;;5029603;28;20077;-72
2022/04/16 08:45:41;;;;;;;2.45;1.00;;;;;;;;;;5031946;28;20144;-72
2022/04/16 08:48:08;;;;;;;3.27;1.23;;;;;;;;;;5030659;28;20494;-72
2022/04/16 08:50:35;;;;;;;;;;;;;;;;;;5016576;28;20422;-73
2022/04/16 08:53:02;;;;;;;1.27;0.90;;;;;;;;;;5020186;28;20038;-72
2022/04/16 08:55:29;;;;;;;2.28;0.90;;;;;;;;;;5011921;28;20057;-73
2022/04/16 08:57:56;;;;;;;2.05;1.20;;;;;;;;;;5012933;28;20464;-73
2022/04/16 09:00:23;;;;;;;1.77;1.45;;;;;;;;;;5012797;28;20072;-73
2022/04/16 09:02:50;;;;;;;2.13;1.20;;;;;;;;;;5011895;28;20128;-73
2022/04/16 09:05:17;;;;;;;3.08;1.35;;;;;;;;;;5013203;28;20592;-73
2022/04/16 09:07:45;;;;;;;1.65;1.15;;;;;;;;;;5012430;28;20140;-73
2022/04/16 09:10:12;;;;;;;1.40;1.02;;;;;;;;;;5013429;28;20137;-73
2022/04/16 09:12:40;;;;;;;2.10;1.00;;;;;;;;;;5013014;28;20047;-73
2022/04/16 09:15:07;;;;;;;2.75;1.00;;;;;;;;;;5018445;28;20079;-73
2022/04/16 09:17:35;;;;;;;4.03;1.55;;;;;;;;;;5019865;28;20085;-73
2022/04/16 09:20:01;;;;;;;;;;;;;;;;;;5018658;28;20400;-73
2022/04/16 09:22:35;;;;;;;2.10;0.90;;;;;;;;;;5005671;28;20438;-74
2022/04/16 09:25:02;;;;;;;1.67;0.65;;;;;;;;;;5010702;28;20140;-73
2022/04/16 09:27:38;;;;;;;1.95;0.82;;;;;;;;;;5013291;28;20151;-74
2022/04/16 09:30:05;;;;;;;2.08;1.20;;;;;;;;;;5014685;28;20145;-74
2022/04/16 09:32:41;;;;;;;2.42;1.02;;;;;;;;;;5019302;28;20128;-74
2022/04/16 09:35:08;;;;;;;3.22;1.23;;;;;;;;;;5022218;28;20138;-74
2022/04/16 09:37:55;;;;;;;2.05;0.80;;;;;;;;;;5013416;28;20076;-74
2022/04/16 09:40:22;;;;;;;;;;;;;;;;;;5014364;28;20181;-75
2022/04/16 09:42:52;;;;;;;1.80;1.05;;;;;;;;;;5014172;28;20011;-74
2022/04/16 09:45:19;;;;;;;3.92;0.90;;;;;;;;;;5016575;28;20086;-74
2022/04/16 09:47:46;;;;;;;;;;;;;;;;;;5018471;28;20088;-74
2022/04/16 09:50:13;;;;;;;2.85;1.23;;;;;;;;;;5020467;28;19979;-75
2022/04/16 09:52:39;;;;;;;1.10;0.85;;;;;;;;;;5022603;28;20128;-74
2022/04/16 09:55:07;;;;;;;0.73;0.68;;;;;;;;;;5019270;28;20132;-74
2022/04/16 09:57:36;;;;;;;1.20;0.95;;;;;;;;;;5018580;28;20476;-75
2022/04/16 10:00:04;;;;;;;0.73;0.68;;;;;;;;;;5018643;28;20136;-73
2022/04/16 10:02:31;;;;;;;1.50;0.70;;;;;;;;;;5021904;28;20493;-75
2022/04/16 10:05:00;;;;;;;1.98;0.90;;;;;;;;;;5022052;28;20042;-75
2022/04/16 10:07:27;;;;;;;1.70;1.17;;;;;;;;;;5018676;28;20081;-74
2022/04/16 10:09:55;;;;;;;1.35;0.80;;;;;;;;;;5022259;28;20136;-74
2022/04/16 10:15:05;;;;;;;6.40;1.13;;;;;;;;;;5021688;28;20080;-74
2022/04/16 10:17:32;;;;;;;2.10;1.02;;;;;;;;;;5017959;28;20140;-73
2022/04/16 10:20:08;;;;;;;1.42;1.02;;;;;;;;;;5015998;28;20469;-74
2022/04/16 10:22:36;;;;;;;3.15;0.93;;;;;;;;;;5017991;28;20465;-74
2022/04/16 10:25:02;;;;;;;2.28;1.20;;;;;;;;;;5016683;28;21020;-74
2022/04/16 10:27:30;;;;;;;1.80;1.00;;;;;;;;;;5016895;28;20068;-74
2022/04/16 10:30:00;;;;;;;2.15;1.13;;;;;;;;;;5018385;28;20509;-74
2022/04/16 10:32:40;;;;;;;3.65;1.05;;;;;;;;;;5017692;28;20152;-73
2022/04/16 10:35:12;;;;;;;1.77;0.98;;;;;;;;;;5016373;28;20049;-74
2022/04/16 10:37:39;;;;;;;1.55;1.00;;;;;;;;;;5017497;28;20504;-73
2022/04/16 10:40:19;;;;;;;4.10;1.10;;;;;;;;;;5015537;28;20140;-74
2022/04/16 10:42:46;;;;;;;4.60;1.10;;;;;;;;;;5016205;28;20053;-74
2022/04/16 10:45:18;;;;;;;0.75;0.75;;;;;;;;;;5016923;28;20136;-74
2022/04/16 10:47:45;;;;;;;1.38;0.90;;;;;;;;;;5018846;28;20158;-74
2022/04/16 10:50:13;;;;;;;2.72;1.10;;;;;;;;;;5015408;28;20057;-74
2022/04/16 10:52:39;;;;;;;;;;;;;;;;;;5017780;28;20137;-74
2022/04/16 10:55:06;;;;;;;2.05;1.20;;;;;;;;;;5015407;28;20029;-74
2022/04/16 10:57:33;;;;;;;3.97;1.40;;;;;;;;;;5016776;28;20154;-74
2022/04/16 11:00:12;;;;;;;1.27;1.02;;;;;;;;;;5019513;28;20141;-74
2022/04/16 11:03:27;;;;;;;1.50;1.00;;;;;;;;;;5015895;28;20061;-75
2022/04/16 11:06:01;;;;;;;2.63;1.13;;;;;;;;;;4998919;28;20084;-75
2022/04/16 11:08:35;;;;;;;1.60;1.10;;;;;;;;;;5015083;28;20711;-75
2022/04/16 11:11:05;;;;;;;2.25;1.00;;;;;;;;;;5016306;28;20087;-75
2022/04/16 11:13:33;;;;;;;3.47;0.90;;;;;;;;;;5015557;28;20055;-72
2022/04/16 11:16:02;;;;;;;1.48;0.80;;;;;;;;;;5016833;28;20041;-73
2022/04/16 11:18:41;;;;;;;1.10;0.70;;;;;;;;;;5015757;28;20049;-73
2022/04/16 11:21:12;;;;;;;2.85;1.05;;;;;;;;;;5012952;28;20076;-73
2022/04/16 11:23:40;;;;;;;5.03;1.05;;;;;;;;;;5017657;28;20116;-73
2022/04/16 11:34:24;;;;;;;2.83;0.93;;;;;;;;;;5027631;28;20081;-73
2022/04/16 11:37:13;;;;;;;1.10;0.90;;;;;;;;;;5021020;28;20049;-73
2022/04/16 11:39:40;;;;;;;2.90;1.35;;;;;;;;;;5022314;28;20072;-72
2022/04/16 11:42:07;;;;;;;2.27;1.07;;;;;;;;;;5023854;28;20084;-73
2022/04/16 11:44:38;;;;;;;3.63;1.20;;;;;;;;;;5023012;28;20226;-73
2022/04/16 11:47:07;;;;;;;1.33;1.05;;;;;;;;;;5023362;28;20144;-73
2022/04/16 11:49:43;;;;;;;1.08;0.90;;;;;;;;;;5026523;28;20146;-74
2022/04/16 11:52:10;;;;;;;3.63;1.20;;;;;;;;;;5024646;28;20072;-73
2022/04/16 11:54:36;;;;;;;2.50;1.13;;;;;;;;;;5025738;28;20137;-74
2022/04/16 11:57:03;;;;;;;2.28;1.33;;;;;;;;;;5021216;28;20173;-74
2022/04/16 11:59:30;;;;;;;1.50;1.08;;;;;;;;;;5019280;28;20120;-73
2022/04/16 12:02:07;;;;;;;3.23;1.27;;;;;;;;;;5017555;28;20145;-73
2022/04/16 12:04:37;;;;;;;2.38;1.60;;;;;;;;;;5020542;28;20140;-74
2022/04/16 12:07:14;;;;;;;2.50;1.10;;;;;;;;;;5021857;28;20136;-73
2022/04/16 12:09:44;;;;;;;2.15;1.10;;;;;;;;;;5019446;28;20132;-74
2022/04/16 12:12:15;;;;;;;1.50;1.00;;;;;;;;;;5016967;28;20057;-74
2022/04/16 12:14:45;;;;;;;3.03;1.23;;;;;;;;;;5020635;28;20088;-73
2022/04/16 12:17:20;;;;;;;1.92;1.20;;;;;;;;;;5019613;28;20501;-74
2022/04/16 12:19:57;;;;;;;2.78;1.05;;;;;;;;;;5020701;28;20572;-74
2022/04/16 12:22:23;;;;;;;2.15;1.20;;;;;;;;;;5023827;28;20091;-73
2022/04/16 12:24:50;;;;;;;2.88;1.15;;;;;;;;;;5020281;28;20092;-74
2022/04/16 12:27:26;;;;;;;1.05;0.80;;;;;;;;;;5018168;28;20053;-74
2022/04/16 12:29:54;;;;;;;2.95;0.95;;;;;;;;;;5018397;28;20084;-74
2022/04/16 12:32:27;;;;;;;4.03;1.05;;;;;;;;;;5019604;28;20128;-74
2022/04/16 12:34:54;;;;;;;1.00;0.90;;;;;;;;;;5019081;28;20164;-73
2022/04/16 12:37:21;;;;;;;3.90;1.45;;;;;;;;;;5017768;28;20140;-74
2022/04/16 12:39:49;;;;;;;1.63;1.10;;;;;;;;;;5021106;28;20081;-75
2022/04/16 12:42:16;;;;;;;1.67;0.88;;;;;;;;;;5018981;28;20143;-73
2022/04/16 12:44:43;;;;;;;1.75;1.05;;;;;;;;;;5019547;28;21650;-73
2022/04/16 12:47:09;;;;;;;2.65;0.90;;;;;;;;;;5008302;28;20046;-73
2022/04/16 12:49:35;;;;;;;1.38;0.98;;;;;;;;;;5018454;28;20149;-74
2022/04/16 12:52:02;;;;;;;2.15;1.13;;;;;;;;;;5023385;28;20548;-74
2022/04/16 12:54:29;;;;;;;3.95;1.40;;;;;;;;;;5020262;28;20084;-73
2022/04/16 12:56:56;;;;;;;;;;;;;;;;;;5017719;28;20079;-73
2022/04/16 12:59:23;;;;;;;3.13;1.10;;;;;;;;;;5020108;28;20384;-74
2022/04/16 13:01:49;;;;;;;1.48;0.70;;;;;;;;;;5017494;28;20049;-73
2022/04/16 13:04:16;;;;;;;2.05;0.93;;;;;;;;;;5020148;28;20046;-74
2022/04/16 13:06:43;;;;;;;1.15;1.00;;;;;;;;;;5020365;28;20603;-73
2022/04/16 13:09:11;;;;;;;1.80;0.90;;;;;;;;;;5014806;28;20065;-73
2022/04/16 13:11:38;;;;;;;3.03;1.10;;;;;;;;;;5025338;28;20099;-73
2022/04/16 13:14:04;;;;;;;2.83;1.08;;;;;;;;;;5021810;28;20115;-73
2022/04/16 13:16:31;;;;;;;2.13;1.42;;;;;;;;;;5020983;28;20948;-73
2022/04/16 13:18:57;;;;;;;1.45;0.88;;;;;;;;;;5018107;28;20049;-73
2022/04/16 13:21:24;;;;;;;4.35;1.10;;;;;;;;;;5019155;28;20128;-73
2022/04/16 13:23:53;;;;;;;1.13;1.00;;;;;;;;;;5023048;28;20080;-73
2022/04/16 13:26:22;;;;;;;1.42;0.88;;;;;;;;;;5017456;28;20050;-73
2022/04/16 13:28:50;;;;;;;1.90;1.27;;;;;;;;;;5019673;28;20133;-73
2022/04/16 13:31:17;;;;;;;1.27;1.10;;;;;;;;;;5021346;28;20171;-73
2022/04/16 13:33:44;;;;;;;1.53;1.13;;;;;;;;;;5017038;28;20069;-72
2022/04/16 13:36:10;;;;;;;3.80;1.08;;;;;;;;;;5018883;28;20045;-72
2022/04/16 13:38:37;;;;;;;2.65;1.30;;;;;;;;;;5021880;28;20080;-72
2022/04/16 13:43:51;;;;;;;1.75;0.82;;;;;;;;;;5016941;28;20143;-72
2022/04/16 13:46:18;;;;;;;3.33;0.98;;;;;;;;;;5021148;28;20096;-72
2022/04/16 13:48:45;;;;;;;2.33;1.05;;;;;;;;;;5023883;28;20140;-72
2022/04/16 13:51:25;;;;;;;1.65;0.70;;;;;;;;;;5017304;28;20060;-72
2022/04/16 13:53:51;;;;;;;3.60;1.43;;;;;;;;;;5012790;28;20041;-72
2022/04/16 13:56:18;;;;;;;3.10;1.40;;;;;;;;;;5015706;28;20145;-72
2022/04/16 13:58:45;;;;;;;1.95;1.40;;;;;;;;;;5017701;28;20132;-72
2022/04/16 14:01:13;;;;;;;3.70;0.90;;;;;;;;;;5016641;28;20074;-72
2022/04/16 14:03:40;;;;;;;1.90;1.20;;;;;;;;;;5017298;28;20084;-72
2022/04/16 14:06:12;;;;;;;2.75;1.10;;;;;;;;;;5015827;28;20129;-72
2022/04/16 14:08:38;;;;;;;2.05;0.95;;;;;;;;;;5015643;28;20073;-72
2022/04/16 14:11:05;;;;;;;2.92;0.93;;;;;;;;;;5017666;28;20129;-72
2022/04/16 14:13:39;;;;;;;3.17;0.98;;;;;;;;;;5017405;28;20137;-72
2022/04/16 14:16:06;;;;;;;3.17;1.17;;;;;;;;;;5018190;28;20136;-72
2022/04/16 14:18:32;;;;;;;1.38;0.98;;;;;;;;;;5017328;28;20123;-72
2022/04/16 14:20:59;;;;;;;1.88;1.00;;;;;;;;;;5020877;28;20136;-71
2022/04/16 14:23:30;;;;;;;6.00;1.20;;;;;;;;;;5017489;28;20150;-72
2022/04/16 14:25:57;;;;;;;1.42;1.08;;;;;;;;;;5014980;28;20133;-71
2022/04/16 14:28:23;;;;;;;2.72;1.10;;;;;;;;;;5015449;28;20536;-71
2022/04/16 14:30:50;;;;;;;1.63;0.80;;;;;;;;;;5020851;28;20086;-71
2022/04/16 14:33:16;;;;;;;2.83;1.02;;;;;;;;;;5014652;28;20410;-70
2022/04/16 14:35:50;;;;;;;2.15;1.38;;;;;;;;;;5018960;28;20053;-71
2022/04/16 14:38:18;;;;;;;3.88;1.40;;;;;;;;;;5020674;28;20144;-71
2022/04/16 14:40:44;;;;;;;2.15;1.00;;;;;;;;;;5015850;28;20065;-71
2022/04/16 14:43:11;;;;;;;4.43;1.20;;;;;;;;;;5016121;28;20199;-71
2022/04/16 14:45:41;;;;;;;1.75;0.82;;;;;;;;;;5017334;28;20125;-71
2022/04/16 14:48:08;;;;;;;3.00;1.02;;;;;;;;;;5021925;28;20089;-71
2022/04/16 14:50:37;;;;;;;1.88;1.23;;;;;;;;;;5021880;28;20481;-70
2022/04/16 14:53:06;;;;;;;1.10;0.90;;;;;;;;;;5021508;28;20084;-71
2022/04/16 14:55:36;;;;;;;3.17;0.80;;;;;;;;;;5018144;28;20133;-71
2022/04/16 14:58:04;;;;;;;2.17;1.00;;;;;;;;;;5022272;28;20081;-71
2022/04/16 15:00:31;;;;;;;1.83;0.90;;;;;;;;;;5020826;28;20132;-70
2022/04/16 15:02:57;;;;;;;2.00;0.98;;;;;;;;;;5022771;28;20049;-70
2022/04/16 15:05:24;;;;;;;1.23;0.90;;;;;;;;;;5021334;28;20140;-70
2022/04/16 15:08:01;;;;;;;3.40;1.42;;;;;;;;;;5024578;28;20112;-70
2022/04/16 15:10:28;;;;;;;2.33;1.30;;;;;;;;;;5021581;28;20049;-70
2022/04/16 15:12:54;;;;;;;1.58;0.93;;;;;;;;;;5022083;28;20568;-70
2022/04/16 15:15:22;;;;;;;2.22;1.10;;;;;;;;;;5020039;28;20042;-70
2022/04/16 15:17:49;;;;;;;3.05;1.17;;;;;;;;;;5024118;28;20065;-70
2022/04/16 15:20:20;;;;;;;3.75;1.30;;;;;;;;;;5021653;28;20132;-70